Airport ID:KEDC
Update Time (UTC):27 MAY 19 08:12
Wind Speed (Knots):7
Wind Direction (Magnetic):190
Temperature (°C):23
Dew Point (°C):21
Humidity (%):90
Altimeter (inHg):29.94
Density Altitude (Feet):1700
Visibility (Miles):9
Clouds (Hundreds of feet):OVC012
Present Weather:NO PRECIPITATION
METAR:METAR KEDC 270810Z AUTO 20008KT 9SM BKN012 OVC021 23/21 A2994 RMK AO2

The data displayed is for advisory purposes only and is not to be used for flight planning or operations.

This page is not automatically refreshed. Reload the page to see current data.